createdAt,value
2022-08-09T00:00:59.212Z,19.25
2022-08-09T00:04:08.500Z,19.29
2022-08-09T00:06:23.127Z,19.34
2022-08-09T00:08:57.090Z,19.41
2022-08-09T00:11:58.441Z,19.31
2022-08-09T00:14:22.038Z,19.19
2022-08-09T00:17:04.149Z,19.19
2022-08-09T00:19:34.773Z,19.22
2022-08-09T00:22:03.688Z,19.20
2022-08-09T00:24:33.292Z,19.15
2022-08-09T00:27:02.287Z,19.07
2022-08-09T00:30:16.226Z,19.02
2022-08-09T00:32:26.771Z,18.87
2022-08-09T00:34:58.612Z,18.77
2022-08-09T00:37:32.291Z,18.66
2022-08-09T00:40:12.465Z,18.69
2022-08-09T00:44:20.251Z,18.65
2022-08-09T00:45:35.276Z,18.56
2022-08-09T00:48:03.790Z,18.51
2022-08-09T00:50:33.895Z,18.42
2022-08-09T00:53:10.249Z,18.37
2022-08-09T00:56:05.073Z,18.30
2022-08-09T00:58:30.501Z,18.24
2022-08-09T01:01:00.835Z,18.14
2022-08-09T01:03:45.577Z,18.11
2022-08-09T01:06:21.086Z,18.18
2022-08-09T01:08:56.105Z,18.15
2022-08-09T01:11:30.018Z,18.08
2022-08-09T01:14:04.518Z,18.04
2022-08-09T01:16:35.912Z,18.00
2022-08-09T01:19:17.041Z,18.03
2022-08-09T01:22:21.020Z,18.04
2022-08-09T01:24:58.735Z,18.06
2022-08-09T01:27:32.127Z,18.08
2022-08-09T01:30:02.337Z,18.09
2022-08-09T01:32:34.237Z,18.09
2022-08-09T01:35:28.573Z,18.02
2022-08-09T01:38:10.828Z,17.95
2022-08-09T01:40:53.119Z,17.97
2022-08-09T01:43:50.721Z,18.00
2022-08-09T01:46:24.679Z,18.01
2022-08-09T01:48:57.261Z,17.99
2022-08-09T01:51:32.633Z,17.97
2022-08-09T01:54:02.937Z,17.96
2022-08-09T01:56:33.452Z,17.98
2022-08-09T01:59:05.683Z,17.95
2022-08-09T02:01:58.468Z,17.83
2022-08-09T02:04:24.629Z,17.79
2022-08-09T02:07:04.866Z,17.86
2022-08-09T02:09:41.990Z,17.87
2022-08-09T02:12:18.034Z,17.80
2022-08-09T02:14:53.276Z,17.70
2022-08-09T02:17:59.468Z,17.62
2022-08-09T02:20:25.363Z,17.50
2022-08-09T02:22:58.783Z,17.35
2022-08-09T02:25:30.263Z,17.30
2022-08-09T02:28:04.214Z,17.22
2022-08-09T02:30:38.973Z,17.13
2022-08-09T02:33:14.172Z,17.07
2022-08-09T02:36:01.902Z,17.09
2022-08-09T02:38:34.911Z,17.15
2022-08-09T02:41:07.826Z,17.23
2022-08-09T02:43:53.953Z,17.28
2022-08-09T02:46:29.104Z,17.31
2022-08-09T02:49:00.255Z,17.36
2022-08-09T02:51:33.041Z,17.39
2022-08-09T02:54:12.388Z,17.40
2022-08-09T02:56:48.661Z,17.41
2022-08-09T02:59:25.884Z,17.40
2022-08-09T03:02:09.809Z,17.40
2022-08-09T03:04:42.127Z,17.44
2022-08-09T03:07:14.189Z,17.47
2022-08-09T03:09:54.375Z,17.49
2022-08-09T03:12:25.818Z,17.47
2022-08-09T03:14:55.394Z,17.48
2022-08-09T03:17:27.347Z,17.45
2022-08-09T03:20:03.289Z,17.41
2022-08-09T03:22:41.891Z,17.40
2022-08-09T03:25:26.200Z,17.36
2022-08-09T03:28:03.163Z,17.34
2022-08-09T03:30:34.117Z,17.35
2022-08-09T03:33:17.084Z,17.25
2022-08-09T03:36:13.115Z,17.21
2022-08-09T03:38:37.276Z,17.15
2022-08-09T03:41:15.094Z,17.17
2022-08-09T03:44:07.613Z,17.16
2022-08-09T03:46:32.978Z,17.08
2022-08-09T03:49:08.445Z,17.01
2022-08-09T03:51:56.867Z,16.96
2022-08-09T03:54:31.520Z,16.88
2022-08-09T03:57:02.002Z,16.93
2022-08-09T03:59:53.669Z,16.98
2022-08-09T04:02:26.481Z,17.02
2022-08-09T04:04:57.013Z,17.05
2022-08-09T04:07:47.028Z,17.04
2022-08-09T04:10:20.283Z,17.05
2022-08-09T04:12:51.055Z,17.07
2022-08-09T04:15:38.914Z,17.11
2022-08-09T04:18:16.480Z,17.19
2022-08-09T04:20:48.503Z,17.24
2022-08-09T04:23:17.783Z,17.35
2022-08-09T04:25:52.950Z,17.41
2022-08-09T04:28:30.687Z,17.47
2022-08-09T04:31:08.435Z,17.52
2022-08-09T04:33:51.754Z,17.61
2022-08-09T04:36:25.387Z,17.70
2022-08-09T04:38:53.899Z,17.79
2022-08-09T04:55:09.066Z,18.42
2022-08-09T04:59:44.064Z,18.56
2022-08-09T05:02:29.345Z,18.74
2022-08-09T05:09:00.201Z,18.98
2022-08-09T05:16:31.999Z,19.17
2022-08-09T05:19:46.442Z,19.27
2022-08-09T05:23:54.379Z,19.32
2022-08-09T05:26:47.775Z,19.37
2022-08-09T05:29:50.076Z,19.48
2022-08-09T05:33:14.530Z,19.59
2022-08-09T05:36:35.668Z,19.68
2022-08-09T05:39:04.487Z,19.76
2022-08-09T05:41:33.466Z,19.90
2022-08-09T05:44:04.699Z,20.04
2022-08-09T05:46:34.099Z,20.15
2022-08-09T05:49:02.375Z,20.32
2022-08-09T05:51:43.163Z,20.41
2022-08-09T05:54:17.935Z,20.50
2022-08-09T05:56:55.106Z,20.58
2022-08-09T05:59:25.583Z,20.74
2022-08-09T06:01:58.880Z,20.80
2022-08-09T06:04:34.642Z,20.87
2022-08-09T06:07:03.908Z,21.00
2022-08-09T06:09:54.149Z,21.11
2022-08-09T06:12:21.508Z,21.25
2022-08-09T06:15:00.989Z,21.32
2022-08-09T06:17:39.952Z,21.39
2022-08-09T06:20:10.389Z,21.44
2022-08-09T06:22:39.589Z,21.51
2022-08-09T06:25:08.555Z,21.65
2022-08-09T06:27:43.130Z,21.77
2022-08-09T06:30:21.948Z,21.92
2022-08-09T06:33:13.394Z,22.01
2022-08-09T06:35:57.110Z,22.12
2022-08-09T06:38:32.269Z,22.23
2022-08-09T06:41:09.352Z,22.28
2022-08-09T06:43:48.229Z,22.36
2022-08-09T06:46:39.453Z,22.48
2022-08-09T06:49:06.892Z,22.62
2022-08-09T06:51:40.060Z,22.71
2022-08-09T06:54:14.831Z,22.81
2022-08-09T06:56:45.484Z,22.92
2022-08-09T07:00:52.321Z,23.05
2022-08-09T07:02:05.313Z,23.15
2022-08-09T07:04:34.290Z,23.21
2022-08-09T07:07:04.702Z,23.33
2022-08-09T07:09:55.468Z,23.42
2022-08-09T07:12:22.660Z,23.51
2022-08-09T07:15:54.014Z,23.56
2022-08-09T07:18:02.002Z,23.62
2022-08-09T07:20:31.605Z,23.71
2022-08-09T07:22:59.979Z,23.76
2022-08-09T07:25:28.631Z,23.78
2022-08-09T07:27:57.516Z,23.85
2022-08-09T07:30:28.818Z,23.87
2022-08-09T07:33:02.762Z,23.97
2022-08-09T07:35:53.644Z,24.09
2022-08-09T07:38:24.047Z,24.20
2022-08-09T07:41:11.380Z,24.28
2022-08-09T07:43:49.874Z,24.26
2022-08-09T07:46:27.771Z,24.26
2022-08-09T07:48:59.483Z,24.27
2022-08-09T07:52:06.297Z,24.35
2022-08-09T07:54:19.155Z,24.47
2022-08-09T07:56:58.585Z,24.54
2022-08-09T07:59:34.248Z,24.63
2022-08-09T08:02:19.486Z,24.79
2022-08-09T08:04:53.811Z,24.98
2022-08-09T08:08:44.236Z,25.20
2022-08-09T08:10:11.747Z,25.19
2022-08-09T08:12:43.096Z,25.18
2022-08-09T08:15:13.845Z,25.17
2022-08-09T08:17:53.275Z,25.25
2022-08-09T08:20:29.419Z,25.41
2022-08-09T08:23:03.604Z,25.57
2022-08-09T08:25:43.955Z,25.63
2022-08-09T08:28:14.451Z,25.70
2022-08-09T08:30:44.033Z,25.90
2022-08-09T08:33:24.302Z,26.03
2022-08-09T08:35:58.981Z,26.23
2022-08-09T08:38:29.628Z,26.21
2022-08-09T08:40:58.468Z,26.13
2022-08-09T08:43:27.967Z,26.17
2022-08-09T08:46:24.889Z,26.21
2022-08-09T08:48:51.367Z,26.25
2022-08-09T08:51:22.736Z,26.31
2022-08-09T08:54:03.394Z,26.25
2022-08-09T08:56:35.298Z,26.12
2022-08-09T08:59:07.980Z,26.14
2022-08-09T09:01:56.734Z,26.12
2022-08-09T09:04:31.388Z,26.15
2022-08-09T09:07:10.214Z,26.25
2022-08-09T09:09:58.386Z,26.43
2022-08-09T09:12:49.990Z,26.50
2022-08-09T09:15:28.449Z,26.59
2022-08-09T09:26:01.628Z,26.74
2022-08-09T09:29:03.992Z,26.85
2022-08-09T09:32:17.227Z,26.89
2022-08-09T09:55:32.158Z,27.66
2022-08-09T09:58:16.236Z,27.56
2022-08-09T10:00:59.811Z,27.65
2022-08-09T10:04:09.755Z,27.73
2022-08-09T10:46:43.545Z,29.05
2022-08-09T10:49:54.185Z,29.43
2022-08-09T10:52:35.653Z,29.21
2022-08-09T10:55:20.724Z,28.81
2022-08-09T10:57:51.865Z,28.63
2022-08-09T11:00:32.302Z,28.82
2022-08-09T11:03:13.823Z,29.08
2022-08-09T11:06:02.381Z,29.44
2022-08-09T11:08:47.081Z,29.36
2022-08-09T11:11:16.642Z,29.09
2022-08-09T11:13:53.857Z,28.88
2022-08-09T11:16:35.652Z,28.84
2022-08-09T11:19:09.663Z,28.95
2022-08-09T11:22:24.222Z,29.09
2022-08-09T11:25:49.302Z,29.43
2022-08-09T11:35:52.201Z,29.90
2022-08-09T11:42:56.386Z,29.63
2022-08-09T11:46:39.193Z,29.36
2022-08-09T12:07:14.393Z,29.36
2022-08-09T12:09:50.718Z,29.17
2022-08-09T12:12:28.781Z,29.05
2022-08-09T12:15:07.504Z,29.19
2022-08-09T12:17:43.239Z,29.50
2022-08-09T12:20:16.601Z,29.63
2022-08-09T12:22:55.723Z,29.72
2022-08-09T12:25:36.568Z,29.47
2022-08-09T12:29:13.812Z,29.35
2022-08-09T12:30:59.033Z,29.11
2022-08-09T12:33:51.195Z,28.98
2022-08-09T12:36:31.570Z,29.09
2022-08-09T12:39:02.591Z,29.27
2022-08-09T12:41:39.218Z,29.44
2022-08-09T12:44:10.000Z,29.53
2022-08-09T12:46:42.005Z,29.61
2022-08-09T12:49:12.393Z,29.73
2022-08-09T12:52:00.253Z,29.93
2022-08-09T12:54:31.188Z,30.00
2022-08-09T12:57:00.246Z,29.96
2022-08-09T12:59:39.766Z,29.90
2022-08-09T13:02:22.109Z,29.78
2022-08-09T13:05:00.739Z,29.93
2022-08-09T13:07:50.290Z,30.03
2022-08-09T13:10:21.318Z,30.29
2022-08-09T13:13:10.882Z,30.18
2022-08-09T13:15:52.499Z,30.14
2022-08-09T13:18:21.409Z,30.05
2022-08-09T13:21:20.616Z,29.80
2022-08-09T13:24:42.151Z,29.93
2022-08-09T13:26:38.768Z,30.01
2022-08-09T13:29:08.070Z,30.10
2022-08-09T13:32:19.240Z,30.31
2022-08-09T13:34:44.065Z,30.49
2022-08-09T13:37:52.502Z,30.45
2022-08-09T13:41:52.043Z,30.33
2022-08-09T13:43:51.791Z,30.21
2022-08-09T13:47:15.216Z,30.29
2022-08-09T13:49:57.207Z,30.19
2022-08-09T13:55:33.054Z,30.10
2022-08-09T13:58:02.018Z,30.01
2022-08-09T14:00:48.166Z,30.00
2022-08-09T14:04:02.225Z,29.73
2022-08-09T14:06:14.662Z,29.58
2022-08-09T14:08:48.171Z,29.55
2022-08-09T14:11:16.716Z,29.54
2022-08-09T14:14:16.418Z,29.54
2022-08-09T14:16:34.987Z,29.71
2022-08-09T14:19:05.851Z,29.69
2022-08-09T14:21:34.212Z,29.57
2022-08-09T14:24:10.308Z,29.50
2022-08-09T14:26:51.750Z,29.50
2022-08-09T14:30:15.241Z,29.45
2022-08-09T14:32:16.208Z,29.43
2022-08-09T14:34:45.008Z,29.40
2022-08-09T14:37:13.858Z,29.33
2022-08-09T14:39:47.891Z,29.22
2022-08-09T14:42:31.698Z,29.20
2022-08-09T14:46:38.861Z,29.17
2022-08-09T14:47:57.246Z,29.22
2022-08-09T14:50:29.372Z,29.23
2022-08-09T14:52:59.561Z,29.25
2022-08-09T14:55:29.120Z,29.19
2022-08-09T14:58:03.052Z,29.11
2022-08-09T15:00:33.328Z,29.04
2022-08-09T15:03:04.272Z,29.06
2022-08-09T15:05:33.209Z,29.05
2022-08-09T15:08:01.864Z,29.09
2022-08-09T15:10:31.708Z,29.11
2022-08-09T15:13:01.509Z,29.06
2022-08-09T15:15:34.282Z,28.99
2022-08-09T15:18:14.116Z,28.94
2022-08-09T15:22:01.486Z,28.87
2022-08-09T15:24:01.407Z,28.77
2022-08-09T15:26:31.428Z,28.73
2022-08-09T15:29:04.350Z,28.63
2022-08-09T15:31:40.830Z,28.61
2022-08-09T15:34:32.205Z,28.58
2022-08-09T15:37:04.058Z,28.55
2022-08-09T15:39:43.739Z,28.58
2022-08-09T15:42:23.100Z,28.54
2022-08-09T15:44:52.737Z,28.56
2022-08-09T15:47:22.609Z,28.53
2022-08-09T15:50:03.561Z,28.50
2022-08-09T15:52:33.258Z,28.45
2022-08-09T15:55:01.938Z,28.37
2022-08-09T15:57:35.762Z,28.30
2022-08-09T16:00:24.208Z,28.29
2022-08-09T16:02:56.831Z,28.24
2022-08-09T16:05:47.172Z,28.16
2022-08-09T16:08:30.056Z,28.11
2022-08-09T16:11:01.864Z,28.09
2022-08-09T16:14:03.807Z,28.01
2022-08-09T16:16:19.966Z,27.84
2022-08-09T16:18:48.423Z,27.83
2022-08-09T16:21:25.415Z,27.75
2022-08-09T16:23:58.837Z,27.71
2022-08-09T16:26:34.106Z,27.72
2022-08-09T16:29:11.368Z,27.66
2022-08-09T16:32:18.418Z,27.57
2022-08-09T16:34:55.990Z,27.54
2022-08-09T16:37:53.107Z,27.46
2022-08-09T16:40:10.113Z,27.42
2022-08-09T16:42:39.580Z,27.31
2022-08-09T16:45:16.736Z,27.26
2022-08-09T16:48:41.195Z,27.23
2022-08-09T16:50:34.727Z,27.19
2022-08-09T16:53:05.596Z,27.13
2022-08-09T16:55:57.679Z,27.04
2022-08-09T16:58:23.330Z,27.00
2022-08-09T17:00:52.515Z,26.98
2022-08-09T17:03:22.948Z,26.92
2022-08-09T17:06:06.588Z,26.84
2022-08-09T17:09:01.786Z,26.76
2022-08-09T17:11:41.043Z,26.75
2022-08-09T17:14:25.643Z,26.72
2022-08-09T17:17:00.208Z,26.67
2022-08-09T17:19:46.365Z,26.63
2022-08-09T17:22:16.009Z,26.58
2022-08-09T17:24:55.625Z,26.53
2022-08-09T17:27:24.408Z,26.49
2022-08-09T17:29:53.903Z,26.44
2022-08-09T17:32:34.767Z,26.36
2022-08-09T17:35:12.163Z,26.32
2022-08-09T17:38:11.603Z,26.29
2022-08-09T17:40:33.650Z,26.22
2022-08-09T17:43:32.991Z,26.18
2022-08-09T17:46:04.431Z,26.13
2022-08-09T17:48:38.551Z,26.08
2022-08-09T17:51:17.087Z,26.03
2022-08-09T17:53:52.418Z,26.01
2022-08-09T17:56:27.817Z,25.95
2022-08-09T17:58:58.586Z,25.85
2022-08-09T18:01:57.950Z,25.80
2022-08-09T18:04:17.882Z,25.75
2022-08-09T18:06:54.412Z,25.66
2022-08-09T18:09:40.158Z,25.62
2022-08-09T18:12:15.261Z,25.57
2022-08-09T18:14:53.581Z,25.48
2022-08-09T18:17:27.698Z,25.46
2022-08-09T18:20:54.896Z,25.37
2022-08-09T18:23:05.124Z,25.26
2022-08-09T18:25:52.517Z,25.21
2022-08-09T18:30:38.743Z,25.15
2022-08-09T18:31:25.122Z,25.06
2022-08-09T18:34:05.361Z,25.02
2022-08-09T18:36:34.769Z,25.02
2022-08-09T18:39:06.513Z,24.96
2022-08-09T18:41:36.659Z,24.87
2022-08-09T18:44:13.573Z,24.77
2022-08-09T18:46:49.542Z,24.72
2022-08-09T18:49:41.283Z,24.74
2022-08-09T18:52:12.992Z,24.71
2022-08-09T18:54:52.129Z,24.64
2022-08-09T18:57:23.121Z,24.58
2022-08-09T18:59:57.598Z,24.52
2022-08-09T19:02:31.854Z,24.48
2022-08-09T19:05:04.344Z,24.41
2022-08-09T19:08:04.515Z,24.38
2022-08-09T19:10:37.045Z,24.31
2022-08-09T19:13:20.665Z,24.27
2022-08-09T19:15:55.497Z,24.24
2022-08-09T19:18:37.408Z,24.23
2022-08-09T19:21:10.466Z,24.15
2022-08-09T19:24:36.260Z,24.15
2022-08-09T19:26:32.228Z,24.09
2022-08-09T19:29:09.735Z,24.06
2022-08-09T19:31:51.494Z,24.01
2022-08-09T19:34:22.919Z,23.92
2022-08-09T19:36:53.432Z,23.90
2022-08-09T19:39:43.182Z,23.85
2022-08-09T19:42:14.966Z,23.80
2022-08-09T19:44:50.509Z,23.75
2022-08-09T19:47:23.073Z,23.76
2022-08-09T19:50:09.775Z,23.74
2022-08-09T19:52:51.536Z,23.69
2022-08-09T19:55:25.587Z,23.68
2022-08-09T19:57:59.758Z,23.64
2022-08-09T20:00:28.460Z,23.67
2022-08-09T20:04:10.891Z,23.72
2022-08-09T20:05:50.416Z,23.72
2022-08-09T20:08:25.101Z,23.69
2022-08-09T20:11:04.883Z,23.70
2022-08-09T20:13:37.048Z,23.61
2022-08-09T20:16:33.947Z,23.62
2022-08-09T20:19:42.713Z,23.66
2022-08-09T20:21:56.277Z,23.71
2022-08-09T20:24:29.632Z,23.65
2022-08-09T20:27:05.610Z,23.65
2022-08-09T20:29:37.814Z,23.62
2022-08-09T20:32:33.392Z,23.67
2022-08-09T20:34:59.450Z,23.65
2022-08-09T20:38:19.578Z,23.58
2022-08-09T20:40:26.955Z,23.53
2022-08-09T20:43:11.990Z,23.38
2022-08-09T20:45:59.137Z,23.38
2022-08-09T20:48:31.787Z,23.27
2022-08-09T20:51:03.086Z,23.16
2022-08-09T20:53:36.198Z,23.06
2022-08-09T20:56:19.835Z,22.92
2022-08-09T20:58:50.393Z,22.89
2022-08-09T21:01:34.973Z,22.85
2022-08-09T21:05:51.412Z,22.82
2022-08-09T21:07:12.839Z,22.62
2022-08-09T21:09:55.519Z,22.45
2022-08-09T21:15:17.329Z,22.44
2022-08-09T21:18:21.742Z,22.52
2022-08-09T21:20:44.202Z,22.46
2022-08-09T21:23:26.492Z,22.43
2022-08-09T21:26:12.482Z,22.40
2022-08-09T21:28:55.619Z,22.30
2022-08-09T21:31:49.102Z,22.24
2022-08-09T21:34:17.112Z,22.28
2022-08-09T21:36:57.984Z,22.18
2022-08-09T21:39:27.801Z,22.09
2022-08-09T21:42:10.808Z,22.09
2022-08-09T21:44:39.386Z,22.08
2022-08-09T21:47:17.658Z,21.95
2022-08-09T21:49:48.303Z,21.69
2022-08-09T21:52:18.499Z,21.62
2022-08-09T21:54:59.412Z,21.63
2022-08-09T21:57:38.302Z,21.61
2022-08-09T22:00:25.809Z,21.56
2022-08-09T22:02:58.118Z,21.55
2022-08-09T22:05:37.259Z,21.62
2022-08-09T22:08:15.356Z,21.64
2022-08-09T22:11:49.877Z,21.59
2022-08-09T22:13:35.646Z,21.46
2022-08-09T22:16:07.629Z,21.31
2022-08-09T22:18:37.513Z,21.35
2022-08-09T22:21:09.832Z,21.36
2022-08-09T22:23:59.226Z,21.27
2022-08-09T22:26:35.577Z,21.24
2022-08-09T22:29:09.066Z,21.16
2022-08-09T22:31:53.290Z,21.02
2022-08-09T22:34:26.628Z,20.93
2022-08-09T22:36:55.459Z,20.99
2022-08-09T22:39:57.299Z,21.04
2022-08-09T22:42:20.669Z,20.99
2022-08-09T22:48:04.735Z,20.89
2022-08-09T22:48:16.424Z,20.86
2022-08-09T22:50:27.782Z,20.90
2022-08-09T22:52:58.192Z,20.88
2022-08-09T22:55:39.774Z,20.79
2022-08-09T22:58:30.774Z,20.72
2022-08-09T23:01:02.770Z,20.55
2022-08-09T23:04:05.874Z,20.51
2022-08-09T23:06:32.702Z,20.42
2022-08-09T23:09:04.550Z,20.40
2022-08-09T23:11:32.890Z,20.38
2022-08-09T23:14:03.575Z,20.22
2022-08-09T23:16:32.311Z,20.15
2022-08-09T23:19:00.718Z,20.21
2022-08-09T23:21:35.887Z,20.11
2022-08-09T23:24:07.122Z,20.05
2022-08-09T23:26:36.179Z,19.99
2022-08-09T23:29:06.246Z,20.04
2022-08-09T23:31:35.108Z,19.99
2022-08-09T23:34:03.813Z,19.92
2022-08-09T23:36:32.715Z,19.86
2022-08-09T23:39:01.371Z,19.77
2022-08-09T23:41:30.079Z,19.73
2022-08-09T23:43:59.581Z,19.64
2022-08-09T23:46:29.608Z,19.58
2022-08-09T23:48:58.112Z,19.56
2022-08-09T23:51:27.279Z,19.52
2022-08-09T23:54:02.222Z,19.48
2022-08-09T23:56:53.378Z,19.44
2022-08-09T23:59:21.377Z,19.43
